Time;durP1;ratioP1;P1;durP2;ratioP2;P2;SDS_P1;SDS_P2;PMS_P1;PMS_P2;Temp;Humidity;BMP_temperature;BMP_pressure;BME280_temperature;BME280_humidity;BME280_pressure;Samples;Min_cycle;Max_cycle;Signal;HPM_P1;HPM_P2
2024/04/16 00:00:31;;;;;;;7.07;2.60;;;8.10;99.90;;;;;;2261138;26;20343;-71
2024/04/16 00:01:32;;;;;;;5.38;2.15;;;8.10;99.90;;;;;;2249521;26;20017;-71
2024/04/16 00:02:34;;;;;;;8.45;2.30;;;8.10;99.90;;;;;;2249434;26;20107;-73
2024/04/16 00:03:34;;;;;;;10.52;3.00;;;8.10;99.90;;;;;;2258725;26;20071;-72
2024/04/16 00:04:35;;;;;;;8.63;2.33;;;8.10;99.90;;;;;;2259761;26;20009;-72
2024/04/16 00:05:36;;;;;;;6.38;2.58;;;8.10;99.90;;;;;;2261906;26;19998;-72
2024/04/16 00:06:36;;;;;;;6.60;2.20;;;8.10;99.90;;;;;;2258108;26;20010;-72
2024/04/16 00:07:37;;;;;;;8.90;2.35;;;8.10;99.90;;;;;;2248380;26;19998;-72
2024/04/16 00:08:37;;;;;;;6.53;2.08;;;8.10;99.90;;;;;;2248207;26;20003;-72
2024/04/16 00:09:38;;;;;;;8.10;2.20;;;8.10;99.90;;;;;;2249707;26;20696;-72
2024/04/16 00:10:38;;;;;;;5.22;2.00;;;8.10;99.90;;;;;;2251153;26;20010;-72
2024/04/16 00:11:39;;;;;;;5.68;2.40;;;8.10;99.90;;;;;;2262179;26;20013;-72
2024/04/16 00:12:39;;;;;;;7.35;2.53;;;8.10;99.90;;;;;;2245332;26;20003;-71
2024/04/16 00:13:40;;;;;;;6.30;2.05;;;8.10;99.90;;;;;;2245087;26;20014;-72
2024/04/16 00:14:41;;;;;;;7.03;2.30;;;8.10;99.90;;;;;;2257896;26;20009;-72
2024/04/16 00:15:41;;;;;;;7.93;2.35;;;8.10;99.90;;;;;;2248209;26;20013;-71
2024/04/16 00:16:42;;;;;;;8.50;2.22;;;8.10;99.90;;;;;;2250491;26;20003;-71
2024/04/16 00:17:43;;;;;;;8.68;2.53;;;8.10;99.90;;;;;;2243341;26;20010;-70
2024/04/16 00:18:45;;;;;;;7.32;2.28;;;8.10;99.90;;;;;;2243006;26;20003;-71
2024/04/16 00:19:46;;;;;;;8.60;2.05;;;8.10;99.90;;;;;;2241418;26;20333;-71
2024/04/16 00:20:46;;;;;;;6.20;2.08;;;8.10;99.90;;;;;;2246979;26;20021;-70
2024/04/16 00:21:47;;;;;;;8.40;2.10;;;8.10;99.90;;;;;;2258900;26;20002;-70
2024/04/16 00:22:47;;;;;;;4.78;1.90;;;8.10;99.90;;;;;;2260702;26;20013;-70
2024/04/16 00:23:48;;;;;;;9.45;2.75;;;8.10;99.90;;;;;;2260326;26;20006;-71
2024/04/16 00:24:49;;;;;;;6.75;2.72;;;8.10;99.90;;;;;;2260798;26;19995;-70
2024/04/16 00:25:49;;;;;;;8.30;2.47;;;8.10;99.90;;;;;;2255221;26;20017;-70
2024/04/16 00:26:50;;;;;;;9.75;2.55;;;8.00;99.90;;;;;;2250933;26;20002;-70
2024/04/16 00:27:50;;;;;;;8.15;2.40;;;8.10;99.90;;;;;;2252067;26;20014;-70
2024/04/16 00:28:52;;;;;;;7.28;2.08;;;8.00;99.90;;;;;;2256593;26;20443;-70
2024/04/16 00:29:52;;;;;;;7.47;2.40;;;8.00;99.90;;;;;;2254052;26;23507;-71
2024/04/16 00:30:56;;;;;;;8.90;2.20;;;8.10;99.90;;;;;;2261036;26;20111;-72
2024/04/16 00:31:56;;;;;;;7.00;1.80;;;8.00;99.90;;;;;;2257842;26;20006;-73
2024/04/16 00:32:57;;;;;;;9.55;2.17;;;8.00;99.90;;;;;;2260129;26;19998;-71
2024/04/16 00:33:58;;;;;;;6.60;1.90;;;8.00;99.90;;;;;;2262439;26;20450;-71
2024/04/16 00:35:02;;;;;;;5.43;1.88;;;8.00;99.90;;;;;;2263877;26;20018;-72
2024/04/16 00:36:02;;;;;;;8.20;2.40;;;8.00;99.90;;;;;;2264110;26;20002;-72
2024/04/16 00:37:03;;;;;;;5.60;1.90;;;8.00;99.90;;;;;;2250734;26;19995;-72
2024/04/16 00:38:04;;;;;;;9.85;2.30;;;8.00;99.90;;;;;;2248843;26;20012;-72
2024/04/16 00:39:04;;;;;;;5.70;2.10;;;8.00;99.90;;;;;;2257120;26;20381;-72
2024/04/16 00:40:05;;;;;;;4.47;1.60;;;8.00;99.90;;;;;;2246670;26;20094;-72
2024/04/16 00:41:08;;;;;;;4.93;1.77;;;8.00;99.90;;;;;;2243422;26;20013;-72
2024/04/16 00:42:09;;;;;;;4.18;1.70;;;8.00;99.90;;;;;;2243272;26;20011;-72
2024/04/16 00:43:20;;;;;;;6.15;2.00;;;8.00;99.90;;;;;;2256960;26;20018;-72
2024/04/16 00:44:22;;;;;;;6.97;2.03;;;8.00;99.90;;;;;;2257681;26;20021;-72
2024/04/16 00:45:22;;;;;;;5.97;2.00;;;8.00;99.90;;;;;;2260522;26;20009;-72
2024/04/16 00:46:23;;;;;;;7.90;2.42;;;8.00;99.90;;;;;;2258801;26;20011;-72
2024/04/16 00:47:23;;;;;;;5.75;2.00;;;8.00;99.90;;;;;;2259510;26;20002;-72
2024/04/16 00:48:27;;;;;;;6.38;2.47;;;8.00;99.90;;;;;;2257285;26;20002;-71
2024/04/16 00:49:27;;;;;;;8.52;2.67;;;8.00;99.90;;;;;;2249158;26;20006;-72
2024/04/16 00:50:28;;;;;;;5.45;2.17;;;8.00;99.90;;;;;;2249102;26;20798;-72
2024/04/16 00:51:29;;;;;;;4.50;1.35;;;7.90;99.90;;;;;;2260005;26;20006;-71
2024/04/16 00:52:30;;;;;;;9.00;1.85;;;7.90;99.90;;;;;;2244863;26;20406;-71
2024/04/16 00:53:31;;;;;;;4.18;1.70;;;7.90;99.90;;;;;;2243916;26;20011;-71
2024/04/16 00:54:32;;;;;;;6.20;1.65;;;7.90;99.90;;;;;;2258678;26;20050;-72
2024/04/16 00:55:33;;;;;;;6.00;1.90;;;7.90;99.90;;;;;;2261966;26;20047;-72
2024/04/16 00:56:35;;;;;;;8.82;1.95;;;7.90;99.90;;;;;;2257568;26;20463;-72
2024/04/16 00:57:37;;;;;;;6.10;1.80;;;7.90;99.90;;;;;;2260770;26;19999;-71
2024/04/16 00:58:40;;;;;;;5.85;1.75;;;7.90;99.90;;;;;;2256478;26;20002;-72
2024/04/16 00:59:43;;;;;;;5.65;1.70;;;7.90;99.90;;;;;;2262312;26;20002;-72
2024/04/16 01:00:44;;;;;;;7.10;1.85;;;7.90;99.90;;;;;;2256933;26;19994;-71
2024/04/16 01:01:45;;;;;;;5.60;1.90;;;7.90;99.90;;;;;;2257688;26;20003;-71
2024/04/16 01:02:45;;;;;;;4.90;1.48;;;7.90;99.90;;;;;;2246160;26;20452;-72
2024/04/16 01:03:46;;;;;;;3.72;1.45;;;7.90;99.90;;;;;;2231271;26;20075;-71
2024/04/16 01:04:47;;;;;;;4.80;1.40;;;7.90;99.90;;;;;;2247515;26;20372;-72
2024/04/16 01:05:48;;;;;;;8.20;2.03;;;7.90;99.90;;;;;;2257543;26;20503;-72
2024/04/16 01:06:52;;;;;;;7.32;1.95;;;7.90;99.90;;;;;;2258642;26;20366;-72
2024/04/16 01:07:53;;;;;;;6.28;1.80;;;7.90;99.90;;;;;;2259122;26;20065;-71
2024/04/16 01:08:54;;;;;;;4.82;1.52;;;7.90;99.90;;;;;;2258204;26;20002;-71
2024/04/16 01:09:54;;;;;;;6.78;1.73;;;7.90;99.90;;;;;;2257812;26;20503;-71
2024/04/16 01:10:55;;;;;;;6.10;1.80;;;7.90;99.90;;;;;;2242526;26;20443;-72
2024/04/16 01:11:58;;;;;;;4.68;1.85;;;7.90;99.90;;;;;;2229072;26;20000;-72
2024/04/16 01:12:59;;;;;;;4.00;1.60;;;7.80;99.90;;;;;;2245220;26;20074;-71
2024/04/16 01:14:00;;;;;;;7.22;1.60;;;7.90;99.90;;;;;;2255086;26;20075;-72
2024/04/16 01:15:00;;;;;;;4.45;1.52;;;7.80;99.90;;;;;;2259684;26;20038;-71
2024/04/16 01:16:01;;;;;;;4.50;1.95;;;7.80;99.90;;;;;;2257760;26;20013;-72
2024/04/16 01:17:01;;;;;;;6.30;1.73;;;7.90;99.90;;;;;;2255948;26;20043;-71
2024/04/16 01:18:03;;;;;;;4.70;2.00;;;7.90;99.90;;;;;;2259688;26;20084;-72
2024/04/16 01:19:06;;;;;;;5.05;2.08;;;7.90;99.90;;;;;;2257479;26;20007;-72
2024/04/16 01:20:07;;;;;;;3.95;1.48;;;7.90;99.90;;;;;;2256096;26;20455;-71
2024/04/16 01:21:07;;;;;;;6.72;1.80;;;7.90;99.90;;;;;;2262115;26;20337;-71
2024/04/16 01:22:10;;;;;;;5.05;1.30;;;7.90;99.90;;;;;;2260490;26;20010;-71
2024/04/16 01:23:10;;;;;;;4.55;1.42;;;7.80;99.90;;;;;;2261171;26;20371;-71
2024/04/16 01:24:11;;;;;;;2.72;1.60;;;7.80;99.90;;;;;;2260757;26;20142;-72
2024/04/16 01:25:11;;;;;;;5.65;2.10;;;7.80;99.90;;;;;;2258831;26;19998;-72
2024/04/16 01:26:12;;;;;;;4.05;1.50;;;7.80;99.90;;;;;;2259699;26;19999;-72
2024/04/16 01:27:12;;;;;;;5.30;1.50;;;7.80;99.90;;;;;;2246913;26;20041;-71
2024/04/16 01:28:13;;;;;;;5.13;1.67;;;7.80;99.90;;;;;;2248402;26;20541;-72
2024/04/16 01:29:14;;;;;;;5.43;1.48;;;7.80;99.90;;;;;;2259141;26;20012;-71
2024/04/16 01:30:15;;;;;;;4.05;1.75;;;7.80;99.90;;;;;;2255881;26;20013;-72
2024/04/16 01:31:15;;;;;;;5.18;1.42;;;7.80;99.90;;;;;;2258489;26;19995;-71
2024/04/16 01:32:16;;;;;;;7.13;1.90;;;7.80;99.90;;;;;;2261777;26;19999;-71
2024/04/16 01:33:16;;;;;;;3.00;1.60;;;7.80;99.90;;;;;;2258769;26;20009;-72
2024/04/16 01:34:17;;;;;;;4.60;1.55;;;7.80;99.90;;;;;;2261308;26;19995;-72
2024/04/16 01:35:17;;;;;;;5.68;1.92;;;7.80;99.90;;;;;;2258714;26;20071;-71
2024/04/16 01:36:18;;;;;;;6.68;1.80;;;7.80;99.90;;;;;;2260007;26;19998;-72
2024/04/16 01:37:18;;;;;;;5.57;1.73;;;7.80;99.90;;;;;;2259587;26;20067;-71
2024/04/16 01:38:19;;;;;;;6.07;1.48;;;7.80;99.90;;;;;;2258441;26;20465;-72
2024/04/16 01:39:20;;;;;;;5.97;2.08;;;7.80;99.90;;;;;;2261534;26;20074;-72
2024/04/16 01:40:20;;;;;;;7.47;1.90;;;7.80;99.90;;;;;;2249209;26;19995;-71
2024/04/16 01:41:21;;;;;;;5.57;1.67;;;7.80;99.90;;;;;;2247301;26;20554;-72
2024/04/16 01:42:21;;;;;;;6.65;1.70;;;7.80;99.90;;;;;;2258597;26;20014;-72
2024/04/16 01:43:22;;;;;;;5.85;1.85;;;7.80;99.90;;;;;;2258979;26;20010;-71
2024/04/16 01:44:22;;;;;;;6.40;1.63;;;7.80;99.90;;;;;;2258082;26;20013;-71
2024/04/16 01:45:23;;;;;;;5.53;1.73;;;7.80;99.90;;;;;;2257112;26;19999;-72
2024/04/16 01:46:23;;;;;;;2.97;1.30;;;7.80;99.90;;;;;;2258891;26;20002;-72
2024/04/16 01:47:24;;;;;;;11.20;2.05;;;7.80;99.90;;;;;;2258460;26;19991;-71
2024/04/16 01:48:25;;;;;;;8.02;1.85;;;7.80;99.90;;;;;;2258230;26;20057;-71
2024/04/16 01:49:25;;;;;;;4.90;1.80;;;7.90;99.90;;;;;;2256087;26;20009;-72
2024/04/16 01:50:26;;;;;;;5.22;1.30;;;7.90;99.90;;;;;;2260185;26;20020;-72
2024/04/16 01:51:27;;;;;;;8.02;2.63;;;7.90;99.90;;;;;;2242613;26;20006;-71
2024/04/16 01:52:27;;;;;;;4.50;1.52;;;7.90;99.90;;;;;;2243614;26;20010;-71
2024/04/16 01:53:28;;;;;;;7.13;1.75;;;7.90;99.90;;;;;;2257445;26;19999;-72
2024/04/16 01:54:28;;;;;;;8.25;1.85;;;7.90;99.90;;;;;;2258085;26;20006;-71
2024/04/16 01:55:29;;;;;;;4.95;1.25;;;7.90;99.90;;;;;;2261255;26;20017;-72
2024/04/16 01:56:30;;;;;;;4.18;1.60;;;7.90;99.90;;;;;;2254829;26;19999;-72
2024/04/16 01:57:30;;;;;;;9.38;2.03;;;7.90;99.90;;;;;;2236797;26;20064;-70
2024/04/16 01:58:31;;;;;;;3.95;1.13;;;7.90;99.90;;;;;;2249088;26;20009;-73
2024/04/16 01:59:32;;;;;;;4.47;1.55;;;7.90;99.90;;;;;;2258061;26;20006;-72
2024/04/16 02:00:32;;;;;;;5.15;1.65;;;7.90;99.90;;;;;;2248501;26;20011;-72
2024/04/16 02:01:33;;;;;;;4.13;1.27;;;7.90;99.90;;;;;;2250508;26;20002;-71
2024/04/16 02:02:35;;;;;;;8.32;2.35;;;7.90;99.90;;;;;;2262257;26;20017;-71
2024/04/16 02:03:36;;;;;;;2.72;1.30;;;7.90;99.90;;;;;;2258403;26;19995;-71
2024/04/16 02:04:36;;;;;;;4.03;1.70;;;7.90;99.90;;;;;;2259853;26;20035;-72
2024/04/16 02:05:37;;;;;;;6.07;1.52;;;7.90;99.90;;;;;;2262749;26;19994;-72
2024/04/16 02:06:38;;;;;;;5.25;1.60;;;7.90;99.90;;;;;;2259610;26;20002;-71
2024/04/16 02:07:38;;;;;;;6.53;1.70;;;7.90;99.90;;;;;;2262780;26;19994;-72
2024/04/16 02:08:39;;;;;;;4.70;1.60;;;7.90;99.90;;;;;;2260752;26;20003;-71
2024/04/16 02:09:39;;;;;;;8.18;1.50;;;7.90;99.90;;;;;;2261699;26;20013;-71
2024/04/16 02:10:51;;;;;;;3.75;1.20;;;7.90;99.90;;;;;;2260723;26;20535;-71
2024/04/16 02:11:51;;;;;;;5.90;1.55;;;7.90;99.90;;;;;;2261333;26;19991;-72
2024/04/16 02:12:52;;;;;;;4.65;1.80;;;7.90;99.90;;;;;;2247705;26;20075;-72
2024/04/16 02:13:53;;;;;;;4.53;1.75;;;7.90;99.90;;;;;;2244986;26;19995;-71
2024/04/16 02:14:54;;;;;;;4.93;1.60;;;7.90;99.90;;;;;;2260976;26;20010;-72
2024/04/16 02:15:54;;;;;;;3.95;1.27;;;7.90;99.90;;;;;;2259443;26;20002;-71
2024/04/16 02:16:56;;;;;;;4.03;1.60;;;7.90;99.90;;;;;;2260842;26;20116;-72
2024/04/16 02:17:56;;;;;;;3.78;1.55;;;7.90;99.90;;;;;;2259350;26;19995;-71
2024/04/16 02:18:57;;;;;;;5.90;1.52;;;7.90;99.90;;;;;;2262013;26;19998;-71
2024/04/16 02:19:57;;;;;;;4.53;1.80;;;7.90;99.90;;;;;;2243462;26;20026;-71
2024/04/16 02:20:58;;;;;;;4.38;1.70;;;7.90;99.90;;;;;;2246545;26;19995;-72
2024/04/16 02:21:58;;;;;;;4.47;1.60;;;7.90;99.90;;;;;;2260348;26;20339;-72
2024/04/16 02:22:59;;;;;;;3.95;1.40;;;7.90;99.90;;;;;;2248835;26;20075;-71
2024/04/16 02:23:59;;;;;;;6.45;2.00;;;7.90;99.90;;;;;;2251416;26;20637;-71
2024/04/16 02:25:00;;;;;;;5.82;1.88;;;7.90;99.90;;;;;;2244854;26;20009;-72
2024/04/16 02:26:00;;;;;;;4.50;1.35;;;7.90;99.90;;;;;;2245472;26;20011;-72
2024/04/16 02:27:01;;;;;;;7.20;2.03;;;7.90;99.90;;;;;;2257626;26;19998;-71
2024/04/16 02:28:02;;;;;;;4.85;1.63;;;7.90;99.90;;;;;;2259783;26;20010;-71
2024/04/16 02:29:03;;;;;;;5.13;1.67;;;7.90;99.90;;;;;;2261162;26;19999;-71
2024/04/16 02:30:04;;;;;;;5.28;1.58;;;7.90;99.90;;;;;;2257773;26;20058;-71
2024/04/16 02:31:05;;;;;;;4.35;1.35;;;7.90;99.90;;;;;;2260466;26;20517;-71
2024/04/16 02:32:06;;;;;;;10.82;1.60;;;7.90;99.90;;;;;;2252210;26;20421;-71
2024/04/16 02:33:06;;;;;;;6.25;1.52;;;7.90;99.90;;;;;;2247442;26;20046;-72
2024/04/16 02:34:07;;;;;;;5.57;1.77;;;7.90;99.90;;;;;;2262351;26;20003;-72
2024/04/16 02:35:07;;;;;;;5.15;1.40;;;7.90;99.90;;;;;;2259692;26;20024;-71
2024/04/16 02:36:08;;;;;;;4.40;1.65;;;7.90;99.90;;;;;;2259394;26;19999;-71
2024/04/16 02:37:08;;;;;;;4.55;1.30;;;7.90;99.90;;;;;;2260036;26;20049;-71
2024/04/16 02:38:09;;;;;;;5.30;1.95;;;7.90;99.90;;;;;;2262772;26;20012;-72
2024/04/16 02:39:09;;;;;;;6.80;1.83;;;7.90;99.90;;;;;;2259674;26;20069;-71
2024/04/16 02:40:10;;;;;;;5.57;1.92;;;7.90;99.90;;;;;;2259484;26;20013;-72
2024/04/16 02:41:10;;;;;;;8.88;1.90;;;7.90;99.90;;;;;;2262805;26;20355;-72
2024/04/16 02:42:11;;;;;;;12.05;1.90;;;7.90;99.90;;;;;;2260295;26;21151;-72
2024/04/16 02:43:11;;;;;;;4.32;1.60;;;7.90;99.90;;;;;;2257952;26;20356;-71
2024/04/16 02:44:12;;;;;;;5.65;1.70;;;7.80;99.90;;;;;;2258739;26;20075;-71
2024/04/16 02:45:13;;;;;;;5.32;1.60;;;7.80;99.90;;;;;;2260090;26;20475;-71
2024/04/16 02:46:13;;;;;;;5.25;1.50;;;7.90;99.90;;;;;;2260250;26;20388;-71
2024/04/16 02:47:14;;;;;;;5.88;1.70;;;7.90;99.90;;;;;;2259897;26;20013;-72
2024/04/16 02:48:14;;;;;;;5.90;1.65;;;7.90;99.90;;;;;;2257571;26;20043;-71
2024/04/16 02:49:15;;;;;;;4.78;1.60;;;7.90;99.90;;;;;;2258111;26;20006;-72
2024/04/16 02:50:15;;;;;;;4.90;1.83;;;7.90;99.90;;;;;;2257457;26;20024;-72
2024/04/16 02:51:17;;;;;;;5.18;1.73;;;7.90;99.90;;;;;;2258830;26;20017;-71
2024/04/16 02:52:17;;;;;;;12.10;2.47;;;7.90;99.90;;;;;;2262502;26;20009;-72
2024/04/16 02:53:18;;;;;;;8.70;2.03;;;7.90;99.90;;;;;;2260894;26;20020;-72
2024/04/16 02:54:18;;;;;;;4.18;1.60;;;7.90;99.90;;;;;;2240618;26;20003;-71
2024/04/16 02:55:21;;;;;;;4.78;1.70;;;7.90;99.90;;;;;;2235553;26;20011;-71
2024/04/16 02:56:22;;;;;;;5.15;1.63;;;7.90;99.90;;;;;;2244462;26;20033;-71
2024/04/16 02:57:23;;;;;;;5.78;1.80;;;7.90;99.90;;;;;;2259119;26;19995;-71
2024/04/16 02:58:23;;;;;;;7.45;1.90;;;7.90;99.90;;;;;;2258091;26;21288;-71
2024/04/16 02:59:24;;;;;;;7.20;2.47;;;7.90;99.90;;;;;;2259343;26;20017;-72
2024/04/16 03:00:25;;;;;;;4.35;1.48;;;7.90;99.90;;;;;;2259386;26;20083;-71
2024/04/16 03:01:25;;;;;;;5.00;1.33;;;7.90;99.90;;;;;;2261294;26;19994;-71
2024/04/16 03:02:26;;;;;;;4.10;1.60;;;7.90;99.90;;;;;;2260331;26;20005;-72
2024/04/16 03:03:26;;;;;;;7.03;2.08;;;7.90;99.90;;;;;;2262567;26;19998;-72
2024/04/16 03:04:27;;;;;;;8.90;2.15;;;7.90;99.90;;;;;;2261672;26;20013;-71
2024/04/16 03:05:27;;;;;;;6.75;1.65;;;7.90;99.90;;;;;;2263135;26;20002;-71
2024/04/16 03:06:28;;;;;;;7.25;2.00;;;7.90;99.90;;;;;;2257984;26;20532;-71
2024/04/16 03:07:28;;;;;;;5.43;1.88;;;8.00;99.90;;;;;;2256786;26;20686;-71
2024/04/16 03:08:29;;;;;;;5.82;1.63;;;8.00;99.90;;;;;;2256286;26;20007;-71
2024/04/16 03:09:30;;;;;;;6.25;1.95;;;7.90;99.90;;;;;;2260444;26;20002;-72
2024/04/16 03:10:30;;;;;;;15.00;2.20;;;8.00;99.90;;;;;;2259519;26;20002;-72
2024/04/16 03:11:31;;;;;;;9.75;2.30;;;8.00;99.90;;;;;;2257536;26;20127;-72
2024/04/16 03:12:31;;;;;;;7.38;1.80;;;8.00;99.90;;;;;;2260307;26;20012;-72
2024/04/16 03:13:32;;;;;;;6.57;2.20;;;8.00;99.90;;;;;;2259258;26;20086;-72
2024/04/16 03:14:32;;;;;;;6.20;1.75;;;8.00;99.90;;;;;;2259991;26;20011;-72
2024/04/16 03:15:33;;;;;;;3.63;1.50;;;8.00;99.90;;;;;;2260449;26;20010;-72
2024/04/16 03:16:33;;;;;;;6.00;2.10;;;7.90;99.90;;;;;;2258967;26;20007;-72
2024/04/16 03:17:34;;;;;;;4.55;1.67;;;8.00;99.90;;;;;;2245418;26;20536;-72
2024/04/16 03:18:35;;;;;;;7.85;2.03;;;8.00;99.90;;;;;;2243667;26;20459;-72
2024/04/16 03:19:36;;;;;;;6.88;2.10;;;7.90;99.90;;;;;;2260258;26;19998;-72
2024/04/16 03:20:36;;;;;;;5.68;1.80;;;7.90;99.90;;;;;;2260444;26;20002;-72
2024/04/16 03:21:37;;;;;;;5.15;2.05;;;7.90;99.90;;;;;;2246511;26;20505;-71
2024/04/16 03:22:37;;;;;;;8.40;1.98;;;7.90;99.90;;;;;;2250989;26;20422;-72
2024/04/16 03:23:38;;;;;;;6.35;1.67;;;7.90;99.90;;;;;;2260989;26;20010;-72
2024/04/16 03:24:38;;;;;;;9.05;1.95;;;7.90;99.90;;;;;;2260027;26;19999;-72
2024/04/16 03:25:44;;;;;;;11.02;1.95;;;7.90;99.90;;;;;;2257675;26;20006;-72
2024/04/16 03:26:44;;;;;;;5.55;2.00;;;7.90;99.90;;;;;;2260071;26;20002;-72
2024/04/16 03:27:45;;;;;;;5.05;2.40;;;7.90;99.90;;;;;;2260531;26;19998;-71
2024/04/16 03:28:45;;;;;;;5.95;2.40;;;7.90;99.90;;;;;;2248877;26;20014;-72
2024/04/16 03:29:46;;;;;;;5.75;2.10;;;7.90;99.90;;;;;;2248735;26;19998;-71
2024/04/16 03:30:46;;;;;;;4.90;2.67;;;7.90;99.90;;;;;;2259646;26;20002;-72
2024/04/16 03:31:47;;;;;;;6.13;2.38;;;7.80;99.90;;;;;;2259889;26;20095;-73
2024/04/16 03:32:47;;;;;;;6.07;2.20;;;7.80;99.90;;;;;;2259159;26;20075;-72
2024/04/16 03:33:48;;;;;;;4.07;2.50;;;7.80;99.90;;;;;;2259773;26;19999;-72
2024/04/16 03:34:48;;;;;;;5.95;2.70;;;7.80;99.90;;;;;;2258622;26;19998;-71
2024/04/16 03:35:56;;;;;;;5.22;2.50;;;7.80;99.90;;;;;;2243799;26;20011;-71
2024/04/16 03:36:58;;;;;;;3.60;2.15;;;7.80;99.90;;;;;;2247835;26;19999;-71
2024/04/16 03:37:59;;;;;;;6.70;3.28;;;7.70;99.90;;;;;;2258179;26;20013;-72
2024/04/16 03:38:59;;;;;;;4.15;3.15;;;7.70;99.90;;;;;;2259201;26;19999;-72
2024/04/16 03:40:00;;;;;;;5.53;2.88;;;7.70;99.90;;;;;;2256068;26;19998;-71
2024/04/16 03:41:01;;;;;;;3.05;2.47;;;7.70;99.90;;;;;;2257667;26;20512;-72
2024/04/16 03:42:02;;;;;;;4.88;2.70;;;7.70;99.90;;;;;;2260538;26;20028;-72
2024/04/16 03:43:02;;;;;;;5.18;2.65;;;7.70;99.90;;;;;;2258134;26;20374;-72
2024/04/16 03:44:03;;;;;;;4.35;2.67;;;7.70;99.90;;;;;;2249017;26;20007;-71
2024/04/16 03:45:04;;;;;;;5.18;2.55;;;7.70;99.90;;;;;;2237951;26;19999;-71
2024/04/16 03:46:05;;;;;;;4.85;2.67;;;7.70;99.90;;;;;;2260002;26;20652;-71
2024/04/16 03:47:05;;;;;;;3.35;2.33;;;7.70;99.90;;;;;;2258972;26;20059;-71
2024/04/16 03:48:06;;;;;;;3.53;2.38;;;7.70;99.90;;;;;;2244800;26;20010;-71
2024/04/16 03:49:07;;;;;;;3.50;2.10;;;7.70;99.90;;;;;;2243093;26;20045;-71
2024/04/16 03:50:07;;;;;;;4.95;2.60;;;7.60;99.90;;;;;;2259778;26;20660;-72
2024/04/16 03:51:08;;;;;;;6.03;2.90;;;7.70;99.90;;;;;;2259161;26;19995;-71
2024/04/16 03:52:08;;;;;;;6.45;2.33;;;7.70;99.90;;;;;;2259004;26;20014;-71
2024/04/16 03:53:09;;;;;;;4.57;2.78;;;7.70;99.90;;;;;;2257722;26;20076;-72
2024/04/16 03:54:09;;;;;;;5.35;2.17;;;7.70;99.90;;;;;;2258637;26;20342;-71
2024/04/16 03:55:10;;;;;;;5.50;2.10;;;7.70;99.90;;;;;;2259708;26;20346;-71
2024/04/16 03:56:10;;;;;;;5.38;2.33;;;7.60;99.90;;;;;;2259286;26;19995;-71
2024/04/16 03:57:11;;;;;;;3.63;1.80;;;7.60;99.90;;;;;;2260446;26;20030;-72
2024/04/16 03:58:13;;;;;;;4.38;1.98;;;7.60;99.90;;;;;;2244937;26;19995;-71
2024/04/16 04:01:52;;;;;;;4.22;1.67;;;7.60;99.90;;;;;;2257627;26;20018;-72
2024/04/16 04:02:53;;;;;;;5.07;1.67;;;7.60;99.90;;;;;;2261844;26;20010;-72
2024/04/16 04:03:54;;;;;;;5.75;1.80;;;7.60;99.90;;;;;;2260622;26;20086;-72
2024/04/16 04:04:54;;;;;;;4.28;1.77;;;7.60;99.90;;;;;;2255570;26;20002;-72
2024/04/16 04:05:55;;;;;;;5.63;1.98;;;7.60;99.90;;;;;;2260204;26;20013;-71
2024/04/16 04:06:55;;;;;;;4.63;1.85;;;7.60;99.90;;;;;;2247430;26;19999;-72
2024/04/16 04:07:56;;;;;;;6.60;2.20;;;7.60;99.90;;;;;;2250046;26;20566;-72
2024/04/16 04:08:56;;;;;;;4.38;1.80;;;7.60;99.90;;;;;;2259133;26;20079;-71
2024/04/16 04:09:57;;;;;;;8.00;2.45;;;7.60;99.90;;;;;;2245730;26;20034;-72
2024/04/16 04:10:57;;;;;;;8.63;2.33;;;7.60;99.90;;;;;;2245071;26;20119;-71
2024/04/16 04:11:58;;;;;;;4.57;1.95;;;7.60;99.90;;;;;;2241683;26;20002;-71
2024/04/16 04:12:58;;;;;;;4.82;1.90;;;7.60;99.90;;;;;;2241702;26;19995;-72
2024/04/16 04:13:59;;;;;;;5.03;2.30;;;7.60;99.90;;;;;;2260050;26;20570;-71
2024/04/16 04:15:00;;;;;;;3.60;1.67;;;7.60;99.90;;;;;;2257141;26;19998;-72
2024/04/16 04:16:00;;;;;;;4.30;2.00;;;7.60;99.90;;;;;;2261591;26;20092;-72
2024/04/16 04:17:01;;;;;;;6.85;2.10;;;7.60;99.90;;;;;;2260438;26;19995;-72
2024/04/16 04:18:01;;;;;;;7.05;2.67;;;7.60;99.90;;;;;;2259382;26;20013;-72
2024/04/16 04:19:02;;;;;;;8.10;2.92;;;7.60;99.90;;;;;;2259148;26;20513;-72
2024/04/16 04:20:02;;;;;;;6.43;2.53;;;7.60;99.90;;;;;;2245577;26;20006;-72
2024/04/16 04:21:03;;;;;;;5.38;2.20;;;7.60;99.90;;;;;;2242727;26;20007;-72
2024/04/16 04:22:04;;;;;;;7.18;2.38;;;7.60;99.90;;;;;;2260040;26;19998;-72
2024/04/16 04:23:07;;;;;;;4.55;2.30;;;7.60;99.90;;;;;;2262146;26;20439;-72
2024/04/16 04:24:07;;;;;;;6.30;2.45;;;7.60;99.90;;;;;;2260706;26;20002;-72
2024/04/16 04:25:08;;;;;;;6.68;2.38;;;7.60;99.90;;;;;;2258548;26;20035;-72
2024/04/16 04:26:09;;;;;;;6.85;2.50;;;7.60;99.90;;;;;;2259366;26;19998;-72
2024/04/16 04:27:09;;;;;;;5.15;2.70;;;7.60;99.90;;;;;;2258753;26;20790;-72
2024/04/16 04:28:10;;;;;;;8.90;2.35;;;7.60;99.90;;;;;;2261211;26;20074;-72
2024/04/16 04:29:10;;;;;;;6.53;2.50;;;7.60;99.90;;;;;;2257619;26;20007;-71
2024/04/16 04:30:11;;;;;;;4.68;2.42;;;7.60;99.90;;;;;;2260964;26;20308;-72
2024/04/16 04:31:21;;;;;;;7.70;2.75;;;7.60;99.90;;;;;;2255328;26;19995;-72
2024/04/16 04:32:21;;;;;;;8.93;3.35;;;7.60;99.90;;;;;;2260628;26;20823;-72
2024/04/16 04:33:24;;;;;;;7.32;2.70;;;7.60;99.90;;;;;;2258616;26;20072;-71
2024/04/16 04:34:25;;;;;;;6.47;2.42;;;7.60;99.90;;;;;;2257281;26;19999;-72
2024/04/16 04:35:26;;;;;;;4.05;2.60;;;7.60;99.90;;;;;;2258784;26;20010;-71
2024/04/16 04:36:27;;;;;;;4.10;2.42;;;7.60;99.90;;;;;;2234215;26;20007;-71
2024/04/16 04:37:27;;;;;;;5.95;2.70;;;7.60;99.90;;;;;;2231885;26;20053;-71
2024/04/16 04:38:28;;;;;;;8.63;3.30;;;7.60;99.90;;;;;;2243757;26;20013;-71
2024/04/16 04:39:28;;;;;;;6.22;2.78;;;7.60;99.90;;;;;;2242365;26;20426;-71
2024/04/16 04:40:29;;;;;;;9.40;2.90;;;7.60;99.90;;;;;;2244273;26;20007;-71
2024/04/16 04:41:29;;;;;;;5.68;2.85;;;7.60;99.90;;;;;;2245240;26;20010;-71
2024/04/16 04:42:30;;;;;;;9.20;3.38;;;7.60;99.90;;;;;;2258725;26;20089;-71
2024/04/16 04:43:31;;;;;;;7.25;3.33;;;7.60;99.90;;;;;;2256637;26;20079;-72
2024/04/16 04:44:31;;;;;;;6.93;3.20;;;7.60;99.90;;;;;;2260592;26;20021;-71
2024/04/16 04:45:32;;;;;;;4.95;3.10;;;7.60;99.90;;;;;;2246164;26;20005;-71
2024/04/16 04:46:33;;;;;;;9.38;3.97;;;7.60;99.90;;;;;;2247222;26;19999;-71
2024/04/16 04:47:34;;;;;;;9.07;3.30;;;7.60;99.90;;;;;;2261447;26;20439;-72
2024/04/16 04:48:34;;;;;;;6.35;2.58;;;7.60;99.90;;;;;;2260210;26;19994;-72
2024/04/16 04:49:35;;;;;;;5.75;3.25;;;7.60;99.90;;;;;;2258775;26;20013;-71
2024/04/16 04:50:35;;;;;;;6.53;3.20;;;7.60;99.90;;;;;;2259439;26;19995;-71
2024/04/16 04:51:36;;;;;;;3.92;2.92;;;7.60;99.90;;;;;;2242739;26;20589;-72
2024/04/16 04:52:36;;;;;;;6.82;2.92;;;7.60;99.90;;;;;;2234124;26;20390;-72
2024/04/16 04:53:37;;;;;;;4.88;2.78;;;7.60;99.90;;;;;;2248264;26;20109;-72
2024/04/16 04:54:38;;;;;;;4.38;2.75;;;7.60;99.90;;;;;;2257639;26;19991;-72
2024/04/16 04:55:38;;;;;;;7.13;3.10;;;7.70;99.90;;;;;;2260647;26;19998;-72
2024/04/16 04:56:39;;;;;;;7.75;2.95;;;7.70;99.90;;;;;;2260435;26;19995;-71
2024/04/16 04:57:41;;;;;;;5.10;2.63;;;7.70;99.90;;;;;;2257533;26;19990;-71
2024/04/16 04:58:42;;;;;;;10.23;4.03;;;7.70;99.90;;;;;;2257552;26;20729;-72
2024/04/16 04:59:42;;;;;;;6.18;2.60;;;7.70;99.90;;;;;;2259249;26;20334;-71
2024/04/16 05:00:43;;;;;;;6.15;3.33;;;7.60;99.90;;;;;;2256492;26;19999;-72
2024/04/16 05:01:43;;;;;;;5.00;3.20;;;7.70;99.90;;;;;;2261900;26;19994;-71
2024/04/16 05:02:44;;;;;;;3.13;2.60;;;7.70;99.90;;;;;;2262715;26;20069;-72
2024/04/16 05:03:44;;;;;;;5.90;3.47;;;7.70;99.90;;;;;;2260099;26;19994;-72
2024/04/16 05:04:45;;;;;;;7.63;3.15;;;7.70;99.90;;;;;;2261589;26;19999;-72
2024/04/16 05:05:45;;;;;;;4.45;3.17;;;7.70;99.90;;;;;;2258101;26;20002;-72
2024/04/16 05:06:46;;;;;;;5.90;3.20;;;7.70;99.90;;;;;;2258713;26;20006;-72
2024/04/16 05:07:46;;;;;;;6.43;2.90;;;7.70;99.90;;;;;;2254148;26;19999;-71
2024/04/16 05:08:47;;;;;;;4.45;2.45;;;7.70;99.90;;;;;;2257884;26;20091;-72
2024/04/16 05:09:49;;;;;;;4.45;2.50;;;7.70;99.90;;;;;;2258357;26;21850;-71
2024/04/16 05:10:51;;;;;;;4.68;2.33;;;7.70;99.90;;;;;;2245501;26;20058;-72
2024/04/16 05:11:51;;;;;;;4.72;2.20;;;7.70;99.90;;;;;;2231906;26;20050;-72
2024/04/16 05:12:52;;;;;;;5.07;2.28;;;7.70;99.90;;;;;;2243480;26;20014;-71
2024/04/16 05:13:53;;;;;;;4.70;1.90;;;7.70;99.90;;;;;;2256108;26;20029;-71
2024/04/16 05:14:53;;;;;;;2.83;1.83;;;7.70;99.90;;;;;;2258656;26;20010;-71
2024/04/16 05:15:54;;;;;;;4.03;1.73;;;7.70;99.90;;;;;;2260767;26;20009;-72
2024/04/16 05:16:54;;;;;;;5.53;2.38;;;7.70;99.90;;;;;;2260080;26;19994;-71
2024/04/16 05:17:55;;;;;;;4.53;1.70;;;7.70;99.90;;;;;;2261556;26;20376;-71
2024/04/16 05:18:55;;;;;;;5.43;2.30;;;7.80;99.90;;;;;;2256231;26;20614;-72
2024/04/16 05:19:56;;;;;;;2.53;1.80;;;7.80;99.90;;;;;;2258145;26;20001;-72
2024/04/16 05:20:58;;;;;;;4.18;2.33;;;7.70;99.90;;;;;;2262320;26;19991;-71
2024/04/16 05:21:58;;;;;;;3.60;2.20;;;7.80;99.90;;;;;;2254134;26;19991;-72
2024/04/16 05:22:59;;;;;;;4.68;2.10;;;7.80;99.90;;;;;;2257719;26;19991;-72
2024/04/16 05:24:02;;;;;;;4.20;2.00;;;7.80;99.90;;;;;;2257708;26;20012;-72